Przemysl, Poland
Current Conditions -  °F | °C
As of 8:30 AM on Saturday 20 Dec 2014 (Local Time) from EPRZ Reporting Station
Broken Clouds Broken Clouds  
Wind Chill: 36°   Ceiling: 1300
Heat Index: 41°   Visibility: 6mi
Dew Point: 37°   Wind: 8mph
Humidity: 87%   Direction: 280°W
Pressure: 29.97"   Gusts: NA
Location:  50°N, 22.81°E
Report Text: EPRZ 200630Z 28007KT 9999 BKN013 05/03 Q1015
Loading
Personal Weather Stations






























Interactive Weather Map New forecast layout! Learn more

10-Day Weather Forecast

Advertisements
Track Severe Weather on mobile